sensor_id;sensor_type;location;lat;lon;timestamp;P1;durP1;ratioP1;P2;durP2;ratioP2
17631;SDS011;8934;51.194;17.150;2023-09-30T00:02:24;17.70;;;12.82;;
17631;SDS011;8934;51.194;17.150;2023-09-30T00:05:13;15.95;;;13.15;;
17631;SDS011;8934;51.194;17.150;2023-09-30T00:08:05;16.35;;;13.80;;
17631;SDS011;8934;51.194;17.150;2023-09-30T00:10:53;16.98;;;13.45;;
17631;SDS011;8934;51.194;17.150;2023-09-30T00:13:42;18.10;;;14.23;;
17631;SDS011;8934;51.194;17.150;2023-09-30T00:16:31;15.90;;;13.02;;
17631;SDS011;8934;51.194;17.150;2023-09-30T00:19:19;17.52;;;12.93;;
17631;SDS011;8934;51.194;17.150;2023-09-30T00:22:08;16.55;;;13.13;;
17631;SDS011;8934;51.194;17.150;2023-09-30T00:24:56;16.10;;;13.45;;
17631;SDS011;8934;51.194;17.150;2023-09-30T00:27:44;16.50;;;13.70;;
17631;SDS011;8934;51.194;17.150;2023-09-30T00:30:33;15.02;;;13.45;;
17631;SDS011;8934;51.194;17.150;2023-09-30T00:33:21;16.88;;;13.88;;
17631;SDS011;8934;51.194;17.150;2023-09-30T00:36:11;16.23;;;13.38;;
17631;SDS011;8934;51.194;17.150;2023-09-30T00:38:59;15.43;;;13.27;;
17631;SDS011;8934;51.194;17.150;2023-09-30T00:41:47;20.15;;;14.63;;
17631;SDS011;8934;51.194;17.150;2023-09-30T00:44:35;18.85;;;14.15;;
17631;SDS011;8934;51.194;17.150;2023-09-30T00:47:24;16.42;;;14.32;;
17631;SDS011;8934;51.194;17.150;2023-09-30T00:50:13;15.45;;;13.32;;
17631;SDS011;8934;51.194;17.150;2023-09-30T00:53:02;19.17;;;14.85;;
17631;SDS011;8934;51.194;17.150;2023-09-30T00:55:50;19.20;;;13.77;;
17631;SDS011;8934;51.194;17.150;2023-09-30T00:58:38;18.65;;;13.48;;
17631;SDS011;8934;51.194;17.150;2023-09-30T01:01:26;16.13;;;13.23;;
17631;SDS011;8934;51.194;17.150;2023-09-30T01:04:16;19.10;;;14.13;;
17631;SDS011;8934;51.194;17.150;2023-09-30T01:07:06;15.73;;;13.73;;
17631;SDS011;8934;51.194;17.150;2023-09-30T01:09:54;18.55;;;14.63;;
17631;SDS011;8934;51.194;17.150;2023-09-30T01:12:42;20.10;;;14.40;;
17631;SDS011;8934;51.194;17.150;2023-09-30T01:15:30;18.85;;;13.80;;
17631;SDS011;8934;51.194;17.150;2023-09-30T01:18:18;19.70;;;16.80;;
17631;SDS011;8934;51.194;17.150;2023-09-30T01:21:08;19.17;;;15.73;;
17631;SDS011;8934;51.194;17.150;2023-09-30T01:24:01;15.90;;;13.77;;
17631;SDS011;8934;51.194;17.150;2023-09-30T01:26:48;20.02;;;15.57;;
17631;SDS011;8934;51.194;17.150;2023-09-30T01:29:37;17.17;;;14.07;;
17631;SDS011;8934;51.194;17.150;2023-09-30T01:32:25;17.25;;;14.05;;
17631;SDS011;8934;51.194;17.150;2023-09-30T01:35:14;18.48;;;14.80;;
17631;SDS011;8934;51.194;17.150;2023-09-30T01:38:02;15.82;;;12.90;;
17631;SDS011;8934;51.194;17.150;2023-09-30T01:40:51;17.73;;;14.77;;
17631;SDS011;8934;51.194;17.150;2023-09-30T01:43:42;21.83;;;14.65;;
17631;SDS011;8934;51.194;17.150;2023-09-30T01:46:30;18.05;;;14.55;;
17631;SDS011;8934;51.194;17.150;2023-09-30T01:49:18;17.35;;;14.98;;
17631;SDS011;8934;51.194;17.150;2023-09-30T01:52:09;17.13;;;13.55;;
17631;SDS011;8934;51.194;17.150;2023-09-30T01:54:57;14.88;;;13.27;;
17631;SDS011;8934;51.194;17.150;2023-09-30T01:57:47;17.65;;;15.32;;
17631;SDS011;8934;51.194;17.150;2023-09-30T02:00:34;19.15;;;15.02;;
17631;SDS011;8934;51.194;17.150;2023-09-30T02:03:24;15.95;;;13.63;;
17631;SDS011;8934;51.194;17.150;2023-09-30T02:06:12;16.85;;;13.98;;
17631;SDS011;8934;51.194;17.150;2023-09-30T02:09:00;20.45;;;14.35;;
17631;SDS011;8934;51.194;17.150;2023-09-30T02:11:49;16.30;;;14.00;;
17631;SDS011;8934;51.194;17.150;2023-09-30T02:14:38;17.67;;;14.43;;
17631;SDS011;8934;51.194;17.150;2023-09-30T02:17:26;18.10;;;14.50;;
17631;SDS011;8934;51.194;17.150;2023-09-30T02:20:14;17.23;;;13.98;;
17631;SDS011;8934;51.194;17.150;2023-09-30T02:23:05;16.75;;;13.45;;
17631;SDS011;8934;51.194;17.150;2023-09-30T02:25:52;18.58;;;14.40;;
17631;SDS011;8934;51.194;17.150;2023-09-30T02:28:41;16.30;;;13.57;;
17631;SDS011;8934;51.194;17.150;2023-09-30T02:31:32;16.10;;;13.95;;
17631;SDS011;8934;51.194;17.150;2023-09-30T02:34:20;18.95;;;14.52;;
17631;SDS011;8934;51.194;17.150;2023-09-30T02:37:09;17.60;;;13.23;;
17631;SDS011;8934;51.194;17.150;2023-09-30T02:39:57;17.08;;;13.95;;
17631;SDS011;8934;51.194;17.150;2023-09-30T02:42:45;16.27;;;13.93;;
17631;SDS011;8934;51.194;17.150;2023-09-30T02:45:34;17.00;;;14.52;;
17631;SDS011;8934;51.194;17.150;2023-09-30T02:48:24;16.92;;;14.00;;
17631;SDS011;8934;51.194;17.150;2023-09-30T02:51:13;20.27;;;14.85;;
17631;SDS011;8934;51.194;17.150;2023-09-30T02:54:01;15.48;;;12.25;;
17631;SDS011;8934;51.194;17.150;2023-09-30T02:56:50;19.20;;;13.75;;
17631;SDS011;8934;51.194;17.150;2023-09-30T02:59:38;14.63;;;12.95;;
17631;SDS011;8934;51.194;17.150;2023-09-30T03:02:26;14.90;;;12.52;;
17631;SDS011;8934;51.194;17.150;2023-09-30T03:05:17;15.27;;;12.60;;
17631;SDS011;8934;51.194;17.150;2023-09-30T03:08:05;16.38;;;11.98;;
17631;SDS011;8934;51.194;17.150;2023-09-30T03:10:53;14.15;;;11.63;;
17631;SDS011;8934;51.194;17.150;2023-09-30T03:13:41;15.23;;;12.38;;
17631;SDS011;8934;51.194;17.150;2023-09-30T03:16:29;14.90;;;11.88;;
17631;SDS011;8934;51.194;17.150;2023-09-30T03:19:18;14.30;;;11.23;;
17631;SDS011;8934;51.194;17.150;2023-09-30T03:22:07;15.35;;;11.55;;
17631;SDS011;8934;51.194;17.150;2023-09-30T03:24:57;13.65;;;10.85;;
17631;SDS011;8934;51.194;17.150;2023-09-30T03:27:46;13.07;;;10.77;;
17631;SDS011;8934;51.194;17.150;2023-09-30T03:30:34;16.48;;;11.32;;
17631;SDS011;8934;51.194;17.150;2023-09-30T03:33:22;14.27;;;10.68;;
17631;SDS011;8934;51.194;17.150;2023-09-30T03:36:12;15.52;;;11.50;;
17631;SDS011;8934;51.194;17.150;2023-09-30T03:39:02;13.07;;;10.63;;
17631;SDS011;8934;51.194;17.150;2023-09-30T03:41:54;13.85;;;11.27;;
17631;SDS011;8934;51.194;17.150;2023-09-30T03:44:43;13.52;;;11.35;;
17631;SDS011;8934;51.194;17.150;2023-09-30T03:47:31;15.80;;;11.85;;
17631;SDS011;8934;51.194;17.150;2023-09-30T03:50:19;11.65;;;10.32;;
17631;SDS011;8934;51.194;17.150;2023-09-30T03:53:09;14.10;;;11.45;;
17631;SDS011;8934;51.194;17.150;2023-09-30T03:55:58;13.85;;;10.45;;
17631;SDS011;8934;51.194;17.150;2023-09-30T03:58:46;13.05;;;11.18;;
17631;SDS011;8934;51.194;17.150;2023-09-30T04:01:35;14.02;;;11.18;;
17631;SDS011;8934;51.194;17.150;2023-09-30T04:04:26;12.55;;;11.18;;
17631;SDS011;8934;51.194;17.150;2023-09-30T04:07:14;15.52;;;11.80;;
17631;SDS011;8934;51.194;17.150;2023-09-30T04:10:02;13.93;;;10.73;;
17631;SDS011;8934;51.194;17.150;2023-09-30T04:12:51;13.25;;;10.93;;
17631;SDS011;8934;51.194;17.150;2023-09-30T04:15:40;13.50;;;10.75;;
17631;SDS011;8934;51.194;17.150;2023-09-30T04:18:27;14.05;;;9.88;;
17631;SDS011;8934;51.194;17.150;2023-09-30T04:21:16;11.30;;;9.55;;
17631;SDS011;8934;51.194;17.150;2023-09-30T04:24:05;11.32;;;9.82;;
17631;SDS011;8934;51.194;17.150;2023-09-30T04:26:52;12.88;;;9.90;;
17631;SDS011;8934;51.194;17.150;2023-09-30T04:29:44;14.60;;;9.73;;
17631;SDS011;8934;51.194;17.150;2023-09-30T04:32:32;12.68;;;8.95;;
17631;SDS011;8934;51.194;17.150;2023-09-30T04:35:20;12.48;;;10.45;;
17631;SDS011;8934;51.194;17.150;2023-09-30T04:38:08;12.52;;;9.38;;
17631;SDS011;8934;51.194;17.150;2023-09-30T04:40:56;11.90;;;9.07;;
17631;SDS011;8934;51.194;17.150;2023-09-30T04:43:44;13.20;;;9.75;;
17631;SDS011;8934;51.194;17.150;2023-09-30T04:46:34;12.60;;;9.10;;
17631;SDS011;8934;51.194;17.150;2023-09-30T04:49:26;11.32;;;9.57;;
17631;SDS011;8934;51.194;17.150;2023-09-30T04:52:13;14.60;;;10.23;;
17631;SDS011;8934;51.194;17.150;2023-09-30T04:55:01;13.93;;;10.02;;
17631;SDS011;8934;51.194;17.150;2023-09-30T04:57:50;12.93;;;10.38;;
17631;SDS011;8934;51.194;17.150;2023-09-30T05:00:38;17.00;;;10.55;;
17631;SDS011;8934;51.194;17.150;2023-09-30T05:03:28;12.57;;;10.25;;
17631;SDS011;8934;51.194;17.150;2023-09-30T05:06:16;13.45;;;10.13;;
17631;SDS011;8934;51.194;17.150;2023-09-30T05:09:03;12.40;;;10.45;;
17631;SDS011;8934;51.194;17.150;2023-09-30T05:11:53;13.23;;;10.10;;
17631;SDS011;8934;51.194;17.150;2023-09-30T05:14:40;15.43;;;10.63;;
17631;SDS011;8934;51.194;17.150;2023-09-30T05:17:28;13.02;;;9.68;;
17631;SDS011;8934;51.194;17.150;2023-09-30T05:20:19;12.43;;;9.13;;
17631;SDS011;8934;51.194;17.150;2023-09-30T05:23:08;10.98;;;9.20;;
17631;SDS011;8934;51.194;17.150;2023-09-30T05:25:58;11.75;;;9.60;;
17631;SDS011;8934;51.194;17.150;2023-09-30T05:28:46;12.45;;;9.60;;
17631;SDS011;8934;51.194;17.150;2023-09-30T05:31:34;11.48;;;8.93;;
17631;SDS011;8934;51.194;17.150;2023-09-30T05:34:22;10.70;;;8.10;;
17631;SDS011;8934;51.194;17.150;2023-09-30T05:37:11;12.80;;;8.55;;
17631;SDS011;8934;51.194;17.150;2023-09-30T05:39:59;11.90;;;9.20;;
17631;SDS011;8934;51.194;17.150;2023-09-30T05:42:51;12.88;;;9.77;;
17631;SDS011;8934;51.194;17.150;2023-09-30T05:45:39;11.45;;;8.75;;
17631;SDS011;8934;51.194;17.150;2023-09-30T05:48:35;11.50;;;8.53;;
17631;SDS011;8934;51.194;17.150;2023-09-30T05:51:25;10.52;;;8.05;;
17631;SDS011;8934;51.194;17.150;2023-09-30T05:54:15;11.07;;;8.23;;
17631;SDS011;8934;51.194;17.150;2023-09-30T05:57:03;10.27;;;8.05;;
17631;SDS011;8934;51.194;17.150;2023-09-30T05:59:51;10.50;;;8.20;;
17631;SDS011;8934;51.194;17.150;2023-09-30T06:02:39;11.38;;;8.15;;
17631;SDS011;8934;51.194;17.150;2023-09-30T06:05:28;10.07;;;7.90;;
17631;SDS011;8934;51.194;17.150;2023-09-30T06:08:17;10.85;;;7.70;;
17631;SDS011;8934;51.194;17.150;2023-09-30T06:11:06;10.32;;;7.85;;
17631;SDS011;8934;51.194;17.150;2023-09-30T06:13:54;10.18;;;6.75;;
17631;SDS011;8934;51.194;17.150;2023-09-30T06:16:45;8.00;;;6.97;;
17631;SDS011;8934;51.194;17.150;2023-09-30T06:19:33;9.70;;;7.35;;
17631;SDS011;8934;51.194;17.150;2023-09-30T06:22:23;7.78;;;4.93;;
17631;SDS011;8934;51.194;17.150;2023-09-30T06:25:14;5.63;;;2.85;;
17631;SDS011;8934;51.194;17.150;2023-09-30T06:28:04;4.95;;;2.00;;
17631;SDS011;8934;51.194;17.150;2023-09-30T06:30:53;5.72;;;2.00;;
17631;SDS011;8934;51.194;17.150;2023-09-30T06:33:41;2.85;;;1.90;;
17631;SDS011;8934;51.194;17.150;2023-09-30T06:36:29;3.85;;;1.38;;
17631;SDS011;8934;51.194;17.150;2023-09-30T06:39:18;4.70;;;2.05;;
17631;SDS011;8934;51.194;17.150;2023-09-30T06:42:06;3.95;;;1.63;;
17631;SDS011;8934;51.194;17.150;2023-09-30T06:44:55;5.00;;;1.92;;
17631;SDS011;8934;51.194;17.150;2023-09-30T06:47:43;5.25;;;2.20;;
17631;SDS011;8934;51.194;17.150;2023-09-30T06:50:31;5.10;;;2.33;;
17631;SDS011;8934;51.194;17.150;2023-09-30T06:53:19;5.65;;;1.63;;
17631;SDS011;8934;51.194;17.150;2023-09-30T06:56:09;5.93;;;2.00;;
17631;SDS011;8934;51.194;17.150;2023-09-30T06:59:00;6.95;;;2.58;;
17631;SDS011;8934;51.194;17.150;2023-09-30T07:01:50;5.78;;;2.28;;
17631;SDS011;8934;51.194;17.150;2023-09-30T07:04:38;4.35;;;1.92;;
17631;SDS011;8934;51.194;17.150;2023-09-30T07:07:26;5.53;;;2.20;;
17631;SDS011;8934;51.194;17.150;2023-09-30T07:10:14;8.07;;;2.05;;
17631;SDS011;8934;51.194;17.150;2023-09-30T07:13:02;4.22;;;1.80;;
17631;SDS011;8934;51.194;17.150;2023-09-30T07:15:50;6.90;;;2.13;;
17631;SDS011;8934;51.194;17.150;2023-09-30T07:18:39;6.47;;;2.35;;
17631;SDS011;8934;51.194;17.150;2023-09-30T07:21:27;5.55;;;2.35;;
17631;SDS011;8934;51.194;17.150;2023-09-30T07:24:15;7.13;;;2.40;;
17631;SDS011;8934;51.194;17.150;2023-09-30T07:27:03;4.22;;;1.98;;
17631;SDS011;8934;51.194;17.150;2023-09-30T07:30:10;5.88;;;2.58;;
17631;SDS011;8934;51.194;17.150;2023-09-30T07:32:58;5.32;;;2.83;;
17631;SDS011;8934;51.194;17.150;2023-09-30T07:35:47;4.95;;;2.90;;
17631;SDS011;8934;51.194;17.150;2023-09-30T07:38:35;7.40;;;3.67;;
17631;SDS011;8934;51.194;17.150;2023-09-30T07:41:23;6.43;;;3.53;;
17631;SDS011;8934;51.194;17.150;2023-09-30T07:44:10;6.53;;;4.38;;
17631;SDS011;8934;51.194;17.150;2023-09-30T07:46:58;8.48;;;4.18;;
17631;SDS011;8934;51.194;17.150;2023-09-30T07:49:46;7.30;;;4.20;;
17631;SDS011;8934;51.194;17.150;2023-09-30T07:52:36;6.60;;;4.45;;
17631;SDS011;8934;51.194;17.150;2023-09-30T07:55:26;7.93;;;4.93;;
17631;SDS011;8934;51.194;17.150;2023-09-30T07:58:14;9.45;;;5.10;;
17631;SDS011;8934;51.194;17.150;2023-09-30T08:01:02;7.85;;;4.95;;
17631;SDS011;8934;51.194;17.150;2023-09-30T08:03:50;7.28;;;5.63;;
17631;SDS011;8934;51.194;17.150;2023-09-30T08:06:38;6.80;;;5.50;;
17631;SDS011;8934;51.194;17.150;2023-09-30T08:09:27;7.28;;;4.00;;
17631;SDS011;8934;51.194;17.150;2023-09-30T08:12:15;5.75;;;3.70;;
17631;SDS011;8934;51.194;17.150;2023-09-30T08:15:03;4.75;;;3.35;;
17631;SDS011;8934;51.194;17.150;2023-09-30T08:17:52;7.75;;;3.25;;
17631;SDS011;8934;51.194;17.150;2023-09-30T08:20:40;6.72;;;3.30;;
17631;SDS011;8934;51.194;17.150;2023-09-30T08:23:27;6.25;;;3.20;;
17631;SDS011;8934;51.194;17.150;2023-09-30T08:26:16;6.90;;;3.50;;
17631;SDS011;8934;51.194;17.150;2023-09-30T08:29:04;5.82;;;3.05;;
17631;SDS011;8934;51.194;17.150;2023-09-30T08:31:52;8.10;;;3.40;;
17631;SDS011;8934;51.194;17.150;2023-09-30T08:34:40;8.52;;;3.15;;
17631;SDS011;8934;51.194;17.150;2023-09-30T08:37:28;5.80;;;3.05;;
17631;SDS011;8934;51.194;17.150;2023-09-30T08:40:19;7.20;;;3.78;;
17631;SDS011;8934;51.194;17.150;2023-09-30T08:43:09;8.35;;;3.97;;
17631;SDS011;8934;51.194;17.150;2023-09-30T08:45:58;8.10;;;3.35;;
17631;SDS011;8934;51.194;17.150;2023-09-30T08:48:47;6.18;;;3.78;;
17631;SDS011;8934;51.194;17.150;2023-09-30T08:51:34;8.43;;;3.97;;
17631;SDS011;8934;51.194;17.150;2023-09-30T08:54:24;7.65;;;3.92;;
17631;SDS011;8934;51.194;17.150;2023-09-30T08:57:12;8.98;;;4.18;;
17631;SDS011;8934;51.194;17.150;2023-09-30T09:00:02;7.65;;;3.60;;
17631;SDS011;8934;51.194;17.150;2023-09-30T09:02:50;9.93;;;3.70;;
17631;SDS011;8934;51.194;17.150;2023-09-30T09:05:38;5.68;;;2.90;;
17631;SDS011;8934;51.194;17.150;2023-09-30T09:08:26;8.30;;;3.30;;
17631;SDS011;8934;51.194;17.150;2023-09-30T09:11:14;7.57;;;3.40;;
17631;SDS011;8934;51.194;17.150;2023-09-30T09:14:03;11.25;;;4.13;;
17631;SDS011;8934;51.194;17.150;2023-09-30T09:16:52;3.60;;;2.90;;
17631;SDS011;8934;51.194;17.150;2023-09-30T09:19:41;9.02;;;3.65;;
17631;SDS011;8934;51.194;17.150;2023-09-30T09:22:37;7.28;;;3.45;;
17631;SDS011;8934;51.194;17.150;2023-09-30T09:25:25;7.97;;;3.78;;
17631;SDS011;8934;51.194;17.150;2023-09-30T09:28:15;7.18;;;2.70;;
17631;SDS011;8934;51.194;17.150;2023-09-30T09:31:02;7.97;;;2.88;;
17631;SDS011;8934;51.194;17.150;2023-09-30T09:33:52;9.63;;;2.88;;
17631;SDS011;8934;51.194;17.150;2023-09-30T09:36:41;5.35;;;2.85;;
17631;SDS011;8934;51.194;17.150;2023-09-30T09:39:29;7.30;;;3.35;;
17631;SDS011;8934;51.194;17.150;2023-09-30T09:42:25;7.57;;;2.15;;
17631;SDS011;8934;51.194;17.150;2023-09-30T09:45:13;5.95;;;2.47;;
17631;SDS011;8934;51.194;17.150;2023-09-30T09:48:02;6.75;;;2.53;;
17631;SDS011;8934;51.194;17.150;2023-09-30T09:50:52;7.05;;;2.05;;
17631;SDS011;8934;51.194;17.150;2023-09-30T09:53:41;4.45;;;1.52;;
17631;SDS011;8934;51.194;17.150;2023-09-30T09:56:30;5.15;;;1.80;;
17631;SDS011;8934;51.194;17.150;2023-09-30T09:59:19;5.75;;;1.98;;
17631;SDS011;8934;51.194;17.150;2023-09-30T10:02:09;5.70;;;2.33;;
17631;SDS011;8934;51.194;17.150;2023-09-30T10:04:58;4.65;;;2.17;;
17631;SDS011;8934;51.194;17.150;2023-09-30T10:07:50;7.00;;;1.95;;
17631;SDS011;8934;51.194;17.150;2023-09-30T10:10:38;5.22;;;1.70;;
17631;SDS011;8934;51.194;17.150;2023-09-30T10:22:45;4.03;;;2.20;;
17631;SDS011;8934;51.194;17.150;2023-09-30T10:25:38;4.53;;;2.03;;
17631;SDS011;8934;51.194;17.150;2023-09-30T10:28:36;5.90;;;2.03;;
17631;SDS011;8934;51.194;17.150;2023-09-30T10:31:25;4.25;;;2.00;;
17631;SDS011;8934;51.194;17.150;2023-09-30T10:34:20;5.53;;;1.95;;
17631;SDS011;8934;51.194;17.150;2023-09-30T10:37:19;5.82;;;2.45;;
17631;SDS011;8934;51.194;17.150;2023-09-30T10:40:07;4.82;;;1.92;;
17631;SDS011;8934;51.194;17.150;2023-09-30T10:42:57;5.38;;;1.70;;
17631;SDS011;8934;51.194;17.150;2023-09-30T10:45:46;6.28;;;2.28;;
17631;SDS011;8934;51.194;17.150;2023-09-30T10:48:35;5.25;;;2.28;;
17631;SDS011;8934;51.194;17.150;2023-09-30T10:51:24;6.47;;;2.28;;
17631;SDS011;8934;51.194;17.150;2023-09-30T10:54:12;5.90;;;2.00;;
17631;SDS011;8934;51.194;17.150;2023-09-30T10:57:01;6.75;;;2.00;;
17631;SDS011;8934;51.194;17.150;2023-09-30T10:59:52;4.78;;;1.90;;
17631;SDS011;8934;51.194;17.150;2023-09-30T11:02:54;5.90;;;2.17;;
17631;SDS011;8934;51.194;17.150;2023-09-30T11:05:47;7.55;;;2.45;;
17631;SDS011;8934;51.194;17.150;2023-09-30T11:08:56;7.05;;;2.42;;
17631;SDS011;8934;51.194;17.150;2023-09-30T11:11:46;4.35;;;2.15;;
17631;SDS011;8934;51.194;17.150;2023-09-30T11:14:35;6.50;;;1.85;;
17631;SDS011;8934;51.194;17.150;2023-09-30T11:17:24;6.85;;;2.35;;
17631;SDS011;8934;51.194;17.150;2023-09-30T11:20:13;6.75;;;2.35;;
17631;SDS011;8934;51.194;17.150;2023-09-30T11:23:01;7.85;;;2.30;;
17631;SDS011;8934;51.194;17.150;2023-09-30T11:25:48;8.75;;;2.75;;
17631;SDS011;8934;51.194;17.150;2023-09-30T11:28:38;9.25;;;2.70;;
17631;SDS011;8934;51.194;17.150;2023-09-30T11:31:28;6.07;;;2.33;;
17631;SDS011;8934;51.194;17.150;2023-09-30T11:34:30;8.77;;;2.63;;
17631;SDS011;8934;51.194;17.150;2023-09-30T11:37:19;4.82;;;1.90;;
17631;SDS011;8934;51.194;17.150;2023-09-30T11:40:11;7.10;;;2.75;;
17631;SDS011;8934;51.194;17.150;2023-09-30T11:43:07;6.60;;;2.85;;
17631;SDS011;8934;51.194;17.150;2023-09-30T11:46:03;7.53;;;2.50;;
17631;SDS011;8934;51.194;17.150;2023-09-30T11:48:58;9.23;;;2.70;;
17631;SDS011;8934;51.194;17.150;2023-09-30T11:51:48;6.53;;;2.70;;
17631;SDS011;8934;51.194;17.150;2023-09-30T11:54:37;5.75;;;2.35;;
17631;SDS011;8934;51.194;17.150;2023-09-30T11:57:27;5.82;;;2.72;;
17631;SDS011;8934;51.194;17.150;2023-09-30T12:00:19;7.22;;;2.97;;
17631;SDS011;8934;51.194;17.150;2023-09-30T12:03:07;8.13;;;3.10;;
17631;SDS011;8934;51.194;17.150;2023-09-30T12:05:57;8.52;;;2.60;;
17631;SDS011;8934;51.194;17.150;2023-09-30T12:08:47;9.48;;;2.88;;
17631;SDS011;8934;51.194;17.150;2023-09-30T12:11:37;7.45;;;2.70;;
17631;SDS011;8934;51.194;17.150;2023-09-30T12:14:25;7.07;;;2.63;;
17631;SDS011;8934;51.194;17.150;2023-09-30T12:17:15;7.57;;;2.53;;
17631;SDS011;8934;51.194;17.150;2023-09-30T12:20:03;6.45;;;2.65;;
17631;SDS011;8934;51.194;17.150;2023-09-30T12:22:52;9.40;;;3.00;;
17631;SDS011;8934;51.194;17.150;2023-09-30T12:25:41;8.13;;;2.65;;
17631;SDS011;8934;51.194;17.150;2023-09-30T12:28:35;8.55;;;3.28;;
17631;SDS011;8934;51.194;17.150;2023-09-30T12:31:23;9.23;;;2.63;;
17631;SDS011;8934;51.194;17.150;2023-09-30T12:34:12;8.15;;;2.60;;
17631;SDS011;8934;51.194;17.150;2023-09-30T12:37:00;9.32;;;3.05;;
17631;SDS011;8934;51.194;17.150;2023-09-30T12:39:49;6.40;;;2.63;;
17631;SDS011;8934;51.194;17.150;2023-09-30T12:42:38;9.32;;;2.67;;
17631;SDS011;8934;51.194;17.150;2023-09-30T12:45:26;7.75;;;2.70;;
17631;SDS011;8934;51.194;17.150;2023-09-30T12:48:14;6.90;;;2.20;;
17631;SDS011;8934;51.194;17.150;2023-09-30T12:51:03;8.20;;;2.67;;
17631;SDS011;8934;51.194;17.150;2023-09-30T12:53:52;7.43;;;2.47;;
17631;SDS011;8934;51.194;17.150;2023-09-30T12:56:40;6.95;;;2.17;;
17631;SDS011;8934;51.194;17.150;2023-09-30T12:59:29;5.68;;;2.55;;
17631;SDS011;8934;51.194;17.150;2023-09-30T13:02:17;6.03;;;2.03;;
17631;SDS011;8934;51.194;17.150;2023-09-30T13:05:05;8.52;;;2.58;;
17631;SDS011;8934;51.194;17.150;2023-09-30T13:07:53;5.82;;;1.75;;
17631;SDS011;8934;51.194;17.150;2023-09-30T13:10:41;7.00;;;2.30;;
17631;SDS011;8934;51.194;17.150;2023-09-30T13:13:30;5.93;;;1.88;;
17631;SDS011;8934;51.194;17.150;2023-09-30T13:16:20;6.30;;;2.10;;
17631;SDS011;8934;51.194;17.150;2023-09-30T13:19:09;5.53;;;2.40;;
17631;SDS011;8934;51.194;17.150;2023-09-30T13:21:57;5.35;;;1.83;;
17631;SDS011;8934;51.194;17.150;2023-09-30T13:25:03;7.90;;;2.40;;
17631;SDS011;8934;51.194;17.150;2023-09-30T13:27:52;8.70;;;2.45;;
17631;SDS011;8934;51.194;17.150;2023-09-30T13:30:39;6.13;;;2.22;;
17631;SDS011;8934;51.194;17.150;2023-09-30T13:33:29;4.45;;;1.80;;
17631;SDS011;8934;51.194;17.150;2023-09-30T13:36:17;5.40;;;1.65;;
17631;SDS011;8934;51.194;17.150;2023-09-30T13:39:05;7.80;;;2.30;;
17631;SDS011;8934;51.194;17.150;2023-09-30T13:41:58;8.70;;;2.08;;
17631;SDS011;8934;51.194;17.150;2023-09-30T13:44:46;6.28;;;2.03;;
17631;SDS011;8934;51.194;17.150;2023-09-30T13:47:34;4.65;;;2.08;;
17631;SDS011;8934;51.194;17.150;2023-09-30T13:50:24;5.43;;;2.20;;
17631;SDS011;8934;51.194;17.150;2023-09-30T13:53:12;7.40;;;2.05;;
17631;SDS011;8934;51.194;17.150;2023-09-30T13:56:02;6.70;;;2.10;;
17631;SDS011;8934;51.194;17.150;2023-09-30T13:58:50;7.63;;;2.47;;
17631;SDS011;8934;51.194;17.150;2023-09-30T14:01:38;6.03;;;2.10;;
17631;SDS011;8934;51.194;17.150;2023-09-30T14:04:29;6.53;;;1.75;;
17631;SDS011;8934;51.194;17.150;2023-09-30T14:07:19;6.13;;;2.10;;
17631;SDS011;8934;51.194;17.150;2023-09-30T14:10:07;7.30;;;2.10;;
17631;SDS011;8934;51.194;17.150;2023-09-30T14:12:56;4.25;;;1.90;;
17631;SDS011;8934;51.194;17.150;2023-09-30T14:15:44;3.97;;;1.60;;
17631;SDS011;8934;51.194;17.150;2023-09-30T14:18:33;6.03;;;1.95;;
17631;SDS011;8934;51.194;17.150;2023-09-30T14:21:22;8.38;;;2.13;;
17631;SDS011;8934;51.194;17.150;2023-09-30T14:24:11;6.63;;;2.03;;
17631;SDS011;8934;51.194;17.150;2023-09-30T14:26:59;5.00;;;1.90;;
17631;SDS011;8934;51.194;17.150;2023-09-30T14:29:47;5.55;;;2.22;;
17631;SDS011;8934;51.194;17.150;2023-09-30T14:32:35;6.30;;;2.00;;
17631;SDS011;8934;51.194;17.150;2023-09-30T14:35:23;7.18;;;2.63;;
17631;SDS011;8934;51.194;17.150;2023-09-30T14:38:11;7.93;;;2.10;;
17631;SDS011;8934;51.194;17.150;2023-09-30T14:41:00;4.95;;;2.10;;
17631;SDS011;8934;51.194;17.150;2023-09-30T14:43:48;6.57;;;2.15;;
17631;SDS011;8934;51.194;17.150;2023-09-30T14:46:36;6.60;;;2.28;;
17631;SDS011;8934;51.194;17.150;2023-09-30T14:49:24;6.70;;;1.63;;
17631;SDS011;8934;51.194;17.150;2023-09-30T14:52:12;6.00;;;1.98;;
17631;SDS011;8934;51.194;17.150;2023-09-30T14:55:01;5.57;;;2.70;;
17631;SDS011;8934;51.194;17.150;2023-09-30T14:57:50;3.75;;;2.00;;
17631;SDS011;8934;51.194;17.150;2023-09-30T15:00:38;6.32;;;2.05;;
17631;SDS011;8934;51.194;17.150;2023-09-30T15:03:26;5.40;;;2.00;;
17631;SDS011;8934;51.194;17.150;2023-09-30T15:06:15;6.35;;;2.38;;
17631;SDS011;8934;51.194;17.150;2023-09-30T15:09:03;5.00;;;2.00;;
17631;SDS011;8934;51.194;17.150;2023-09-30T15:11:55;6.03;;;2.25;;
17631;SDS011;8934;51.194;17.150;2023-09-30T15:14:44;5.65;;;2.30;;
17631;SDS011;8934;51.194;17.150;2023-09-30T15:17:33;8.02;;;2.22;;
17631;SDS011;8934;51.194;17.150;2023-09-30T15:20:20;6.78;;;2.13;;
17631;SDS011;8934;51.194;17.150;2023-09-30T15:23:10;5.85;;;2.20;;
17631;SDS011;8934;51.194;17.150;2023-09-30T15:25:58;5.68;;;2.08;;
17631;SDS011;8934;51.194;17.150;2023-09-30T15:28:49;5.88;;;2.75;;
17631;SDS011;8934;51.194;17.150;2023-09-30T15:31:38;6.13;;;2.08;;
17631;SDS011;8934;51.194;17.150;2023-09-30T15:34:27;6.15;;;2.03;;
17631;SDS011;8934;51.194;17.150;2023-09-30T15:37:14;6.03;;;2.15;;
17631;SDS011;8934;51.194;17.150;2023-09-30T15:40:02;7.55;;;2.38;;
17631;SDS011;8934;51.194;17.150;2023-09-30T15:42:51;6.18;;;2.20;;
17631;SDS011;8934;51.194;17.150;2023-09-30T15:45:40;7.40;;;2.70;;
17631;SDS011;8934;51.194;17.150;2023-09-30T15:48:29;6.88;;;2.25;;
17631;SDS011;8934;51.194;17.150;2023-09-30T15:51:17;8.82;;;2.42;;
17631;SDS011;8934;51.194;17.150;2023-09-30T15:54:05;6.38;;;2.33;;
17631;SDS011;8934;51.194;17.150;2023-09-30T15:56:53;5.78;;;1.80;;
17631;SDS011;8934;51.194;17.150;2023-09-30T15:59:41;8.93;;;2.75;;
17631;SDS011;8934;51.194;17.150;2023-09-30T16:02:29;10.00;;;2.03;;
17631;SDS011;8934;51.194;17.150;2023-09-30T16:05:18;6.30;;;2.25;;
17631;SDS011;8934;51.194;17.150;2023-09-30T16:08:06;9.27;;;2.30;;
17631;SDS011;8934;51.194;17.150;2023-09-30T16:10:55;8.63;;;2.60;;
17631;SDS011;8934;51.194;17.150;2023-09-30T16:13:43;6.65;;;2.60;;
17631;SDS011;8934;51.194;17.150;2023-09-30T16:16:31;8.38;;;2.72;;
17631;SDS011;8934;51.194;17.150;2023-09-30T16:19:19;6.93;;;2.60;;
17631;SDS011;8934;51.194;17.150;2023-09-30T16:22:09;8.80;;;2.72;;
17631;SDS011;8934;51.194;17.150;2023-09-30T16:24:56;6.35;;;2.53;;
17631;SDS011;8934;51.194;17.150;2023-09-30T16:27:46;6.60;;;2.40;;
17631;SDS011;8934;51.194;17.150;2023-09-30T16:30:35;7.32;;;2.90;;
17631;SDS011;8934;51.194;17.150;2023-09-30T16:33:23;7.22;;;2.42;;
17631;SDS011;8934;51.194;17.150;2023-09-30T16:36:11;7.32;;;2.40;;
17631;SDS011;8934;51.194;17.150;2023-09-30T16:39:02;6.40;;;2.78;;
17631;SDS011;8934;51.194;17.150;2023-09-30T16:41:51;5.28;;;2.17;;
17631;SDS011;8934;51.194;17.150;2023-09-30T16:44:38;6.55;;;2.50;;
17631;SDS011;8934;51.194;17.150;2023-09-30T16:47:29;7.75;;;2.70;;
17631;SDS011;8934;51.194;17.150;2023-09-30T16:50:18;8.18;;;2.95;;
17631;SDS011;8934;51.194;17.150;2023-09-30T16:53:08;6.63;;;2.75;;
17631;SDS011;8934;51.194;17.150;2023-09-30T16:56:00;7.43;;;3.10;;
17631;SDS011;8934;51.194;17.150;2023-09-30T16:58:48;10.15;;;3.05;;